Wetterdaten: Woche 25.01.16 - 31.01.16 (KW4)
Datum Zeit Temp. Aussen Temp. o. S. +5cm Feuchte Auss BlattFeu 1 Luftdruck Regen Sonnenschein Regendauer Solar Windben Empfang
25.01.2016 00:00 9,5 C 9,4 C 7,8 C 98 % 1 lf 1027,8 hPa 0,0 l/m 0,00 h 0,00 h 0 W/m 14,1 km/h (3 Bft) 96,10 %
25.01.2016 01:00 9,6 C 9,4 C 7,8 C 98 % 1 lf 1027,5 hPa 0,0 l/m 0,00 h 0,00 h 0 W/m 10,7 km/h (2 Bft) 98,58 %
25.01.2016 02:00 9,7 C 9,7 C 7,8 C 97 % 1 lf 1027,3 hPa 0,0 l/m 0,00 h 0,00 h 0 W/m 8,7 km/h (2 Bft) 94,31 %
25.01.2016 03:00 9,8 C 10,1 C 7,8 C 97 % 1 lf 1027,2 hPa 0,0 l/m 0,00 h 0,00 h 0 W/m 7,3 km/h (2 Bft) 96,20 %
25.01.2016 04:00 9,9 C 10,3 C 7,5 C 97 % 0 lf 1027,1 hPa 0,0 l/m 0,00 h 0,00 h 0 W/m 5,7 km/h (1 Bft) 97,58 %
25.01.2016 05:00 9,5 C 9,3 C 7,5 C 96 % 1 lf 1026,9 hPa 0,0 l/m 0,00 h 0,00 h 0 W/m 6,4 km/h (2 Bft) 95,38 %
25.01.2016 06:00 9,0 C 8,9 C 7,1 C 96 % 1 lf 1026,7 hPa 0,0 l/m 0,00 h 0,00 h 0 W/m 5,3 km/h (1 Bft) 97,44 %
25.01.2016 07:00 8,5 C 8,2 C 6,5 C 96 % 1 lf 1026,4 hPa 0,0 l/m 0,00 h 0,00 h 0 W/m 8,1 km/h (2 Bft) 96,14 %
25.01.2016 08:00 7,8 C 7,5 C 5,4 C 96 % 6 lf 1026,2 hPa 0,0 l/m 0,30 h 0,00 h 17 W/m 6,0 km/h (2 Bft) 94,82 %
25.01.2016 09:00 7,6 C 8,1 C 5,9 C 97 % 8 lf 1026,0 hPa 0,0 l/m 0,13 h 0,00 h 49 W/m 7,7 km/h (2 Bft) 97,66 %
25.01.2016 10:00 8,3 C 11,6 C 7,1 C 98 % 1 lf 1025,7 hPa 0,0 l/m 0,80 h 0,00 h 181 W/m 10,6 km/h (2 Bft) 96,73 %
25.01.2016 11:00 11,3 C 17,8 C 9,3 C 95 % 0 lf 1025,4 hPa 0,0 l/m 1,00 h 0,00 h 283 W/m 17,1 km/h (3 Bft) 94,34 %
25.01.2016 12:00 13,2 C 18,1 C 11,1 C 86 % 0 lf 1024,7 hPa 0,0 l/m 1,00 h 0,00 h 315 W/m 20,3 km/h (4 Bft) 97,24 %
25.01.2016 13:00 13,7 C 17,3 C 11,8 C 84 % 0 lf 1023,7 hPa 0,0 l/m 1,00 h 0,00 h 278 W/m 25,7 km/h (4 Bft) 96,49 %
25.01.2016 14:00 13,9 C 17,2 C 12,1 C 83 % 0 lf 1023,0 hPa 0,0 l/m 1,00 h 0,00 h 228 W/m 25,7 km/h (4 Bft) 97,94 %
25.01.2016 15:00 13,8 C 15,0 C 11,7 C 81 % 0 lf 1022,5 hPa 0,0 l/m 0,77 h 0,00 h 114 W/m 22,7 km/h (4 Bft) 94,87 %
25.01.2016 16:00 13,1 C 13,0 C 10,9 C 80 % 0 lf 1022,0 hPa 0,0 l/m 0,00 h 0,00 h 26 W/m 19,0 km/h (3 Bft) 95,59 %
25.01.2016 17:00 11,9 C 11,6 C 9,6 C 82 % 0 lf 1021,8 hPa 0,0 l/m 0,00 h 0,00 h 6 W/m 15,5 km/h (3 Bft) 97,64 %
25.01.2016 18:00 10,7 C 9,9 C 7,3 C 84 % 0 lf 1021,8 hPa 0,0 l/m 0,00 h 0,00 h 0 W/m 8,9 km/h (2 Bft) 97,16 %
25.01.2016 19:00 9,6 C 10,0 C 7,0 C 81 % 0 lf 1022,4 hPa 0,0 l/m 0,00 h 0,00 h 0 W/m 11,3 km/h (2 Bft) 94,23 %
25.01.2016 20:00 9,8 C 9,8 C 6,7 C 73 % 0 lf 1022,6 hPa 0,0 l/m 0,00 h 0,00 h 0 W/m 8,2 km/h (2 Bft) 98,06 %
25.01.2016 21:00 9,2 C 9,1 C 5,9 C 75 % 0 lf 1023,3 hPa 0,0 l/m 0,00 h 0,00 h 0 W/m 6,6 km/h (2 Bft) 94,79 %
25.01.2016 22:00 9,6 C 10,5 C 7,9 C 79 % 0 lf 1023,7 hPa 0,0 l/m 0,00 h 0,00 h 0 W/m 11,6 km/h (2 Bft) 96,99 %
25.01.2016 23:00 10,5 C 10,9 C 8,7 C 80 % 0 lf 1023,9 hPa 0,0 l/m 0,00 h 0,00 h 0 W/m 18,4 km/h (3 Bft) 95,79 %
26.01.2016 00:00 11,0 C 11,1 C 9,0 C 82 % 0 lf 1023,7 hPa 0,0 l/m 0,00 h 0,00 h 0 W/m 22,1 km/h (4 Bft) 95,44 %
26.01.2016 01:00 11,0 C 11,1 C 9,0 C 84 % 0 lf 1023,6 hPa 0,0 l/m 0,00 h 0,00 h 0 W/m 22,2 km/h (4 Bft) 96,98 %
26.01.2016 02:00 10,9 C 11,1 C 9,4 C 86 % 0 lf 1024,0 hPa 0,0 l/m 0,00 h 0,00 h 0 W/m 24,0 km/h (4 Bft) 97,36 %
26.01.2016 03:00 10,8 C 11,0 C 9,2 C 89 % 0 lf 1023,8 hPa 0,0 l/m 0,00 h 0,00 h 0 W/m 21,5 km/h (4 Bft) 93,25 %
26.01.2016 04:00 10,4 C 10,1 C 8,4 C 90 % 0 lf 1023,7 hPa 0,0 l/m 0,00 h 0,00 h 0 W/m 15,6 km/h (3 Bft) 97,59 %
26.01.2016 05:00 9,9 C 9,7 C 8,0 C 91 % 0 lf 1023,7 hPa 0,0 l/m 0,00 h 0,00 h 0 W/m 14,4 km/h (3 Bft) 97,65 %
26.01.2016 06:00 9,8 C 10,0 C 8,3 C 93 % 0 lf 1023,5 hPa 0,0 l/m 0,00 h 0,03 h 0 W/m 12,7 km/h (3 Bft) 94,95 %
26.01.2016 07:00 9,8 C 10,0 C 8,3 C 93 % 0 lf 1023,3 hPa 0,0 l/m 0,00 h 0,13 h 0 W/m 12,6 km/h (3 Bft) 96,23 %
26.01.2016 08:00 9,9 C 10,0 C 8,3 C 93 % 0 lf 1023,2 hPa 0,0 l/m 0,00 h 0,10 h 5 W/m 13,0 km/h (3 Bft) 96,44 %
26.01.2016 09:00 9,9 C 10,0 C 8,3 C 93 % 1 lf 1023,0 hPa 0,0 l/m 0,00 h 0,20 h 12 W/m 14,6 km/h (3 Bft) 96,38 %
26.01.2016 10:00 10,1 C 10,4 C 8,6 C 94 % 1 lf 1022,3 hPa 0,0 l/m 0,00 h 0,10 h 39 W/m 16,5 km/h (3 Bft) 96,80 %
26.01.2016 11:00 10,4 C 11,1 C 9,4 C 94 % 0 lf 1022,0 hPa 0,0 l/m 0,00 h 0,00 h 37 W/m 15,9 km/h (3 Bft) 94,88 %
26.01.2016 12:00 10,7 C 11,3 C 9,7 C 94 % 0 lf 1021,1 hPa 0,0 l/m 0,00 h 0,00 h 51 W/m 15,3 km/h (3 Bft) 95,52 %
26.01.2016 13:00 11,0 C 12,1 C 10,2 C 93 % 0 lf 1020,5 hPa 0,0 l/m 0,13 h 0,00 h 92 W/m 22,7 km/h (4 Bft) 98,36 %
26.01.2016 14:00 11,5 C 12,6 C 10,5 C 88 % 0 lf 1020,2 hPa 0,0 l/m 0,30 h 0,00 h 108 W/m 29,4 km/h (5 Bft) 95,02 %
26.01.2016 15:00 11,3 C 11,9 C 9,8 C 83 % 0 lf 1019,5 hPa 0,0 l/m 0,03 h 0,00 h 87 W/m 34,2 km/h (5 Bft) 95,80 %
26.01.2016 16:00 10,7 C 10,9 C 9,0 C 81 % 0 lf 1019,1 hPa 0,0 l/m 0,00 h 0,00 h 35 W/m 29,7 km/h (5 Bft) 97,65 %
26.01.2016 17:00 10,1 C 10,1 C 8,3 C 79 % 0 lf 1018,8 hPa 0,0 l/m 0,00 h 0,00 h 6 W/m 29,6 km/h (5 Bft) 96,97 %
26.01.2016 18:00 9,8 C 10,0 C 7,9 C 78 % 0 lf 1018,5 hPa 0,0 l/m 0,00 h 0,00 h 0 W/m 28,4 km/h (4 Bft) 94,16 %
26.01.2016 19:00 9,9 C 10,0 C 8,3 C 77 % 0 lf 1018,7 hPa 0,0 l/m 0,00 h 0,00 h 0 W/m 28,9 km/h (5 Bft) 97,19 %
26.01.2016 20:00 10,1 C 10,4 C 8,5 C 76 % 0 lf 1018,8 hPa 0,0 l/m 0,00 h 0,00 h 0 W/m 30,8 km/h (5 Bft) 95,53 %
26.01.2016 21:00 9,8 C 8,4 C 7,0 C 81 % 14 lf 1018,4 hPa 0,4 l/m 0,00 h 0,93 h 0 W/m 31,6 km/h (5 Bft) 97,29 %
26.01.2016 22:00 9,2 C 7,8 C 6,7 C 88 % 15 lf 1017,9 hPa 0,6 l/m 0,00 h 1,00 h 0 W/m 34,5 km/h (5 Bft) 94,97 %
26.01.2016 23:00 9,0 C 8,2 C 6,7 C 91 % 15 lf 1017,5 hPa 0,2 l/m 0,00 h 0,77 h 0 W/m 34,7 km/h (5 Bft) 95,54 %
27.01.2016 00:00 9,5 C 9,1 C 7,3 C 89 % 6 lf 1017,4 hPa 0,0 l/m 0,00 h 0,50 h 0 W/m 34,2 km/h (5 Bft) 93,71 %
27.01.2016 01:00 9,9 C 10,2 C 7,8 C 87 % 0 lf 1017,0 hPa 0,0 l/m 0,00 h 0,00 h 0 W/m 35,1 km/h (5 Bft) 96,18 %
27.01.2016 02:00 10,3 C 10,6 C 8,1 C 85 % 0 lf 1016,9 hPa 0,0 l/m 0,00 h 0,00 h 0 W/m 35,1 km/h (5 Bft) 96,62 %
27.01.2016 03:00 10,5 C 10,6 C 8,9 C 84 % 0 lf 1016,7 hPa 0,0 l/m 0,00 h 0,00 h 0 W/m 29,8 km/h (5 Bft) 94,48 %
27.01.2016 04:00 10,5 C 10,6 C 8,9 C 85 % 0 lf 1016,2 hPa 0,0 l/m 0,00 h 0,07 h 0 W/m 28,9 km/h (5 Bft) 96,70 %
27.01.2016 05:00 10,5 C 10,6 C 8,9 C 86 % 0 lf 1015,6 hPa 0,0 l/m 0,00 h 0,00 h 0 W/m 32,2 km/h (5 Bft) 96,95 %
27.01.2016 06:00 10,6 C 10,7 C 9,0 C 85 % 0 lf 1015,6 hPa 0,0 l/m 0,00 h 0,00 h 0 W/m 36,5 km/h (5 Bft) 94,98 %
27.01.2016 07:00 10,4 C 10,6 C 8,9 C 85 % 0 lf 1015,5 hPa 0,0 l/m 0,00 h 0,00 h 0 W/m 29,2 km/h (5 Bft) 95,73 %
27.01.2016 08:00 10,4 C 10,6 C 8,9 C 84 % 0 lf 1015,1 hPa 0,0 l/m 0,00 h 0,03 h 6 W/m 32,5 km/h (5 Bft) 97,64 %
27.01.2016 09:00 10,5 C 10,1 C 8,6 C 85 % 6 lf 1015,4 hPa 0,2 l/m 0,00 h 0,63 h 27 W/m 36,0 km/h (5 Bft) 95,14 %
27.01.2016 10:00 10,0 C 9,3 C 7,8 C 90 % 15 lf 1015,3 hPa 0,2 l/m 0,00 h 1,00 h 31 W/m 36,0 km/h (5 Bft) 96,44 %
27.01.2016 11:00 10,2 C 10,1 C 8,3 C 90 % 7 lf 1015,4 hPa 0,2 l/m 0,00 h 0,63 h 58 W/m 33,3 km/h (5 Bft) 95,34 %
27.01.2016 12:00 11,2 C 11,9 C 9,8 C 86 % 0 lf 1014,8 hPa 0,0 l/m 0,00 h 0,00 h 89 W/m 40,0 km/h (6 Bft) 95,49 %
27.01.2016 13:00 11,7 C 12,2 C 10,5 C 84 % 0 lf 1014,2 hPa 0,0 l/m 0,00 h 0,00 h 79 W/m 37,9 km/h (5 Bft) 98,38 %
27.01.2016 14:00 11,8 C 12,3 C 10,6 C 83 % 0 lf 1013,3 hPa 0,0 l/m 0,00 h 0,00 h 83 W/m 35,4 km/h (5 Bft) 95,24 %
27.01.2016 15:00 11,9 C 12,2 C 10,6 C 82 % 0 lf 1013,0 hPa 0,0 l/m 0,00 h 0,00 h 43 W/m 35,7 km/h (5 Bft) 94,49 %
27.01.2016 16:00 11,8 C 12,1 C 10,3 C 83 % 0 lf 1012,7 hPa 0,0 l/m 0,03 h 0,00 h 29 W/m 37,4 km/h (5 Bft) 97,24 %
27.01.2016 17:00 11,7 C 11,7 C 10,0 C 83 % 0 lf 1012,5 hPa 0,0 l/m 0,00 h 0,00 h 6 W/m 32,7 km/h (5 Bft) 96,72 %
27.01.2016 18:00 11,6 C 11,7 C 10,0 C 83 % 0 lf 1012,4 hPa 0,0 l/m 0,00 h 0,00 h 0 W/m 34,0 km/h (5 Bft) 93,39 %
27.01.2016 19:00 11,3 C 10,9 C 9,3 C 86 % 9 lf 1012,3 hPa 0,0 l/m 0,00 h 0,80 h 0 W/m 36,8 km/h (5 Bft) 98,51 %
27.01.2016 20:00 10,7 C 9,5 C 8,4 C 90 % 15 lf 1012,1 hPa 0,6 l/m 0,00 h 1,00 h 0 W/m 35,0 km/h (5 Bft) 95,03 %
27.01.2016 21:00 10,3 C 9,4 C 8,2 C 92 % 14 lf 1011,9 hPa 0,0 l/m 0,00 h 1,00 h 0 W/m 36,8 km/h (5 Bft) 97,32 %
27.01.2016 22:00 10,0 C 9,2 C 7,8 C 93 % 15 lf 1012,1 hPa 0,6 l/m 0,00 h 1,00 h 0 W/m 32,6 km/h (5 Bft) 95,00 %
27.01.2016 23:00 9,7 C 9,3 C 7,8 C 94 % 15 lf 1012,2 hPa 0,2 l/m 0,00 h 1,00 h 0 W/m 27,7 km/h (4 Bft) 95,89 %
28.01.2016 00:00 9,7 C 9,4 C 7,8 C 95 % 15 lf 1012,5 hPa 0,4 l/m 0,00 h 0,93 h 0 W/m 26,8 km/h (4 Bft) 94,18 %
28.01.2016 01:00 9,6 C 9,4 C 7,8 C 96 % 15 lf 1012,6 hPa 0,2 l/m 0,00 h 0,97 h 0 W/m 25,2 km/h (4 Bft) 98,23 %
28.01.2016 02:00 9,7 C 9,4 C 8,0 C 96 % 15 lf 1013,1 hPa 0,6 l/m 0,00 h 1,00 h 0 W/m 26,4 km/h (4 Bft) 92,54 %
28.01.2016 03:00 9,3 C 8,7 C 7,5 C 96 % 15 lf 1014,6 hPa 0,6 l/m 0,00 h 0,73 h 0 W/m 27,3 km/h (4 Bft) 97,15 %
28.01.2016 04:00 8,7 C 8,1 C 7,0 C 96 % 15 lf 1015,9 hPa 0,0 l/m 0,00 h 0,78 h 0 W/m 20,8 km/h (4 Bft) 98,15 %
28.01.2016 05:00 8,2 C 7,6 C 6,3 C 95 % 15 lf 1017,3 hPa 0,2 l/m 0,00 h 0,23 h 0 W/m 22,3 km/h (4 Bft) 95,02 %
28.01.2016 06:00 7,2 C 6,2 C 4,8 C 91 % 12 lf 1019,0 hPa 0,0 l/m 0,00 h 0,00 h 0 W/m 20,8 km/h (4 Bft) 96,12 %
28.01.2016 07:00 6,2 C 5,0 C 3,8 C 90 % 7 lf 1020,7 hPa 0,0 l/m 0,00 h 0,00 h 0 W/m 12,2 km/h (2 Bft) 95,04 %
28.01.2016 08:00 5,2 C 4,0 C 2,8 C 90 % 7 lf 1021,9 hPa 0,0 l/m 0,03 h 0,00 h 16 W/m 8,5 km/h (2 Bft) 96,86 %
28.01.2016 09:00 4,7 C 4,7 C 3,4 C 92 % 6 lf 1023,2 hPa 0,0 l/m 0,47 h 0,00 h 73 W/m 10,8 km/h (2 Bft) 96,66 %
28.01.2016 10:00 5,8 C 10,5 C 4,9 C 94 % 0 lf 1024,2 hPa 0,0 l/m 1,00 h 0,00 h 198 W/m 13,8 km/h (3 Bft) 95,54 %
28.01.2016 11:00 7,7 C 16,4 C 6,0 C 85 % 0 lf 1025,1 hPa 0,0 l/m 0,95 h 0,00 h 311 W/m 19,0 km/h (3 Bft) 95,50 %
28.01.2016 12:00 8,7 C 15,6 C 6,9 C 76 % 0 lf 1025,3 hPa 0,0 l/m 0,90 h 0,00 h 293 W/m 19,7 km/h (3 Bft) 97,07 %
28.01.2016 13:00 8,5 C 14,8 C 6,7 C 73 % 0 lf 1025,2 hPa 0,0 l/m 0,93 h 0,00 h 283 W/m 18,7 km/h (3 Bft) 97,29 %
28.01.2016 14:00 8,7 C 12,6 C 6,5 C 69 % 0 lf 1025,1 hPa 0,0 l/m 0,53 h 0,00 h 167 W/m 19,6 km/h (3 Bft) 94,52 %
28.01.2016 15:00 8,0 C 10,0 C 5,9 C 71 % 0 lf 1025,0 hPa 0,0 l/m 0,47 h 0,00 h 107 W/m 15,1 km/h (3 Bft) 94,74 %
28.01.2016 16:00 7,2 C 7,1 C 5,1 C 73 % 0 lf 1025,4 hPa 0,0 l/m 0,17 h 0,00 h 39 W/m 13,1 km/h (3 Bft) 98,23 %
28.01.2016 17:00 6,1 C 5,1 C 3,4 C 76 % 0 lf 1025,5 hPa 0,0 l/m 0,00 h 0,00 h 8 W/m 8,0 km/h (2 Bft) 96,09 %
28.01.2016 18:00 4,9 C 4,0 C 2,0 C 80 % 0 lf 1025,7 hPa 0,0 l/m 0,00 h 0,00 h 0 W/m 6,7 km/h (2 Bft) 96,73 %
28.01.2016 19:00 4,1 C 3,9 C 2,1 C 83 % 0 lf 1026,0 hPa 0,0 l/m 0,00 h 0,00 h 0 W/m 10,8 km/h (2 Bft) 95,94 %
28.01.2016 20:00 3,7 C 3,3 C 1,8 C 84 % 0 lf 1026,0 hPa 0,0 l/m 0,00 h 0,00 h 0 W/m 10,3 km/h (2 Bft) 95,54 %
28.01.2016 21:00 3,1 C 2,8 C 1,3 C 86 % 0 lf 1025,9 hPa 0,0 l/m 0,00 h 0,00 h 0 W/m 9,6 km/h (2 Bft) 98,10 %
28.01.2016 22:00 2,8 C 2,8 C 1,4 C 88 % 0 lf 1025,9 hPa 0,0 l/m 0,00 h 0,00 h 0 W/m 10,9 km/h (2 Bft) 96,80 %
28.01.2016 23:00 3,0 C 3,1 C 1,7 C 90 % 0 lf 1025,8 hPa 0,0 l/m 0,00 h 0,00 h 0 W/m 11,5 km/h (2 Bft) 93,85 %
29.01.2016 00:00 3,0 C 3,1 C 1,7 C 91 % 0 lf 1025,4 hPa 0,0 l/m 0,00 h 0,00 h 0 W/m 15,2 km/h (3 Bft) 96,49 %
29.01.2016 01:00 3,1 C 3,2 C 1,7 C 91 % 0 lf 1025,0 hPa 0,0 l/m 0,00 h 0,00 h 0 W/m 17,0 km/h (3 Bft) 97,16 %
29.01.2016 02:00 3,2 C 3,6 C 2,0 C 90 % 0 lf 1024,9 hPa 0,0 l/m 0,00 h 0,00 h 0 W/m 20,8 km/h (4 Bft) 95,51 %
29.01.2016 03:00 3,6 C 4,0 C 2,4 C 87 % 0 lf 1024,4 hPa 0,0 l/m 0,00 h 0,00 h 0 W/m 23,4 km/h (4 Bft) 95,62 %
29.01.2016 04:00 4,3 C 4,6 C 3,2 C 86 % 0 lf 1024,2 hPa 0,0 l/m 0,00 h 0,00 h 0 W/m 22,8 km/h (4 Bft) 96,18 %
29.01.2016 05:00 5,0 C 5,5 C 3,9 C 84 % 0 lf 1023,8 hPa 0,0 l/m 0,00 h 0,00 h 0 W/m 27,4 km/h (4 Bft) 96,65 %
29.01.2016 06:00 5,4 C 5,6 C 3,9 C 83 % 0 lf 1023,1 hPa 0,0 l/m 0,00 h 0,00 h 0 W/m 30,5 km/h (5 Bft) 95,45 %
29.01.2016 07:00 5,3 C 5,6 C 3,9 C 84 % 0 lf 1023,0 hPa 0,0 l/m 0,00 h 0,00 h 0 W/m 27,3 km/h (4 Bft) 97,85 %
29.01.2016 08:00 5,4 C 5,8 C 4,1 C 85 % 0 lf 1023,1 hPa 0,0 l/m 0,07 h 0,00 h 15 W/m 27,1 km/h (4 Bft) 93,33 %
29.01.2016 09:00 6,1 C 6,8 C 5,2 C 85 % 0 lf 1023,1 hPa 0,0 l/m 0,00 h 0,00 h 45 W/m 29,7 km/h (5 Bft) 97,68 %
29.01.2016 10:00 7,1 C 8,0 C 6,3 C 84 % 0 lf 1023,1 hPa 0,0 l/m 0,00 h 0,00 h 81 W/m 31,6 km/h (5 Bft) 97,79 %
29.01.2016 11:00 8,1 C 9,6 C 7,6 C 84 % 0 lf 1022,7 hPa 0,0 l/m 0,53 h 0,00 h 188 W/m 32,8 km/h (5 Bft) 93,97 %
29.01.2016 12:00 8,8 C 9,6 C 7,9 C 83 % 0 lf 1022,5 hPa 0,0 l/m 0,00 h 0,00 h 135 W/m 38,8 km/h (5 Bft) 95,88 %
29.01.2016 13:00 9,3 C 10,2 C 8,3 C 82 % 0 lf 1022,3 hPa 0,0 l/m 0,20 h 0,00 h 128 W/m 44,2 km/h (6 Bft) 97,32 %
29.01.2016 14:00 9,1 C 9,4 C 7,8 C 83 % 0 lf 1021,8 hPa 0,0 l/m 0,00 h 0,00 h 62 W/m 41,6 km/h (6 Bft) 95,40 %
29.01.2016 15:00 8,9 C 9,4 C 7,8 C 84 % 0 lf 1021,5 hPa 0,0 l/m 0,00 h 0,00 h 29 W/m 41,9 km/h (6 Bft) 95,67 %
29.01.2016 16:00 8,9 C 9,1 C 7,8 C 85 % 0 lf 1021,7 hPa 0,0 l/m 0,00 h 0,00 h 11 W/m 40,4 km/h (6 Bft) 96,32 %
29.01.2016 17:00 8,9 C 9,2 C 7,7 C 85 % 0 lf 1021,5 hPa 0,0 l/m 0,00 h 0,00 h 4 W/m 36,9 km/h (5 Bft) 94,77 %
29.01.2016 18:00 8,9 C 9,2 C 7,8 C 85 % 0 lf 1021,4 hPa 0,0 l/m 0,00 h 0,00 h 0 W/m 36,1 km/h (5 Bft) 98,67 %
29.01.2016 19:00 9,0 C 9,3 C 7,8 C 86 % 0 lf 1021,2 hPa 0,0 l/m 0,00 h 0,03 h 0 W/m 36,7 km/h (5 Bft) 94,83 %
29.01.2016 20:00 9,0 C 9,1 C 7,6 C 87 % 0 lf 1021,0 hPa 0,0 l/m 0,00 h 0,00 h 0 W/m 35,6 km/h (5 Bft) 95,33 %
29.01.2016 21:00 9,2 C 9,4 C 7,7 C 86 % 2 lf 1020,6 hPa 0,0 l/m 0,00 h 0,13 h 0 W/m 37,0 km/h (5 Bft) 97,58 %
29.01.2016 22:00 9,3 C 9,4 C 7,8 C 85 % 0 lf 1020,0 hPa 0,0 l/m 0,00 h 0,00 h 0 W/m 39,1 km/h (6 Bft) 97,00 %
29.01.2016 23:00 9,4 C 9,4 C 7,8 C 85 % 0 lf 1019,4 hPa 0,0 l/m 0,00 h 0,00 h 0 W/m 38,0 km/h (5 Bft) 93,46 %
30.01.2016 00:00 9,3 C 9,1 C 7,5 C 85 % 4 lf 1018,6 hPa 0,0 l/m 0,00 h 0,73 h 0 W/m 34,7 km/h (5 Bft) 93,92 %
30.01.2016 01:00 9,1 C 8,9 C 7,2 C 87 % 3 lf 1018,0 hPa 0,0 l/m 0,00 h 0,97 h 0 W/m 35,9 km/h (5 Bft) 95,30 %
30.01.2016 02:00 8,9 C 8,6 C 7,0 C 88 % 2 lf 1016,7 hPa 0,0 l/m 0,00 h 0,90 h 0 W/m 37,6 km/h (5 Bft) 97,30 %
30.01.2016 03:00 8,8 C 8,3 C 6,8 C 88 % 11 lf 1015,6 hPa 0,0 l/m 0,00 h 1,00 h 0 W/m 34,6 km/h (5 Bft) 95,58 %
30.01.2016 04:00 8,8 C 8,5 C 6,7 C 89 % 7 lf 1014,3 hPa 0,2 l/m 0,00 h 0,95 h 0 W/m 38,7 km/h (5 Bft) 93,80 %
30.01.2016 05:00 8,8 C 8,1 C 6,7 C 90 % 12 lf 1013,3 hPa 0,6 l/m 0,00 h 1,00 h 0 W/m 36,6 km/h (5 Bft) 97,44 %
30.01.2016 06:00 8,3 C 7,8 C 6,6 C 93 % 15 lf 1012,0 hPa 1,2 l/m 0,00 h 1,00 h 0 W/m 38,1 km/h (5 Bft) 98,08 %
30.01.2016 07:00 8,1 C 7,4 C 6,1 C 94 % 15 lf 1011,2 hPa 1,2 l/m 0,00 h 0,97 h 0 W/m 40,4 km/h (6 Bft) 93,39 %
30.01.2016 08:00 8,1 C 7,6 C 6,1 C 94 % 15 lf 1010,4 hPa 0,4 l/m 0,00 h 1,00 h 7 W/m 42,9 km/h (6 Bft) 95,80 %
30.01.2016 09:00 8,1 C 7,5 C 6,1 C 94 % 15 lf 1009,5 hPa 0,8 l/m 0,00 h 1,00 h 27 W/m 44,7 km/h (6 Bft) 97,30 %
30.01.2016 10:00 8,3 C 7,8 C 6,4 C 93 % 15 lf 1008,7 hPa 0,4 l/m 0,00 h 1,00 h 54 W/m 43,6 km/h (6 Bft) 95,01 %
30.01.2016 11:00 8,3 C 7,7 C 6,5 C 93 % 15 lf 1007,7 hPa 0,6 l/m 0,00 h 1,00 h 59 W/m 42,5 km/h (6 Bft) 96,86 %
30.01.2016 12:00 8,1 C 7,3 C 6,1 C 93 % 15 lf 1006,5 hPa 1,0 l/m 0,00 h 1,00 h 55 W/m 46,6 km/h (6 Bft) 94,45 %
30.01.2016 13:00 7,5 C 6,8 C 5,6 C 93 % 15 lf 1005,9 hPa 3,6 l/m 0,00 h 1,00 h 30 W/m 38,8 km/h (5 Bft) 96,16 %
30.01.2016 14:00 6,3 C 5,9 C 4,7 C 94 % 15 lf 1006,5 hPa 2,8 l/m 0,00 h 1,00 h 24 W/m 28,0 km/h (4 Bft) 97,51 %
30.01.2016 15:00 5,6 C 5,5 C 4,4 C 95 % 15 lf 1006,4 hPa 0,6 l/m 0,00 h 0,90 h 20 W/m 17,8 km/h (3 Bft) 95,45 %
30.01.2016 16:00 5,2 C 4,9 C 3,9 C 95 % 15 lf 1006,6 hPa 1,0 l/m 0,00 h 0,83 h 9 W/m 23,4 km/h (4 Bft) 94,52 %
30.01.2016 17:00 4,9 C 4,4 C 3,4 C 95 % 15 lf 1006,7 hPa 0,0 l/m 0,00 h 0,17 h 9 W/m 22,8 km/h (4 Bft) 96,80 %
30.01.2016 18:00 4,8 C 4,4 C 3,3 C 95 % 15 lf 1007,3 hPa 0,2 l/m 0,00 h 0,47 h 0 W/m 23,9 km/h (4 Bft) 98,01 %
30.01.2016 19:00 4,4 C 3,9 C 2,8 C 95 % 15 lf 1008,3 hPa 0,0 l/m 0,00 h 0,00 h 0 W/m 19,4 km/h (3 Bft) 95,02 %
30.01.2016 20:00 4,0 C 3,5 C 2,1 C 95 % 15 lf 1008,8 hPa 0,0 l/m 0,00 h 0,03 h 0 W/m 22,7 km/h (4 Bft) 95,51 %
30.01.2016 21:00 3,1 C 2,7 C 1,4 C 95 % 15 lf 1009,3 hPa 0,0 l/m 0,00 h 0,03 h 0 W/m 24,8 km/h (4 Bft) 97,65 %
30.01.2016 22:00 2,7 C 2,3 C 1,1 C 94 % 11 lf 1009,8 hPa 0,0 l/m 0,00 h 0,00 h 0 W/m 23,9 km/h (4 Bft) 95,94 %
30.01.2016 23:00 2,9 C 2,8 C 1,1 C 90 % 1 lf 1010,1 hPa 0,0 l/m 0,00 h 0,00 h 0 W/m 25,5 km/h (4 Bft) 96,58 %
31.01.2016 00:00 3,3 C 3,4 C 1,2 C 88 % 0 lf 1010,3 hPa 0,0 l/m 0,00 h 0,00 h 0 W/m 26,4 km/h (4 Bft) 95,39 %
31.01.2016 01:00 3,6 C 3,8 C 1,7 C 87 % 0 lf 1010,6 hPa 0,0 l/m 0,00 h 0,00 h 0 W/m 24,0 km/h (4 Bft) 95,16 %
31.01.2016 02:00 3,5 C 3,4 C 2,1 C 88 % 0 lf 1010,3 hPa 0,0 l/m 0,00 h 0,00 h 0 W/m 24,2 km/h (4 Bft) 97,15 %
31.01.2016 03:00 3,8 C 4,1 C 2,5 C 89 % 0 lf 1010,4 hPa 0,0 l/m 0,00 h 0,00 h 0 W/m 28,1 km/h (4 Bft) 96,87 %
31.01.2016 04:00 4,1 C 4,4 C 2,8 C 89 % 0 lf 1010,5 hPa 0,0 l/m 0,00 h 0,00 h 0 W/m 30,5 km/h (5 Bft) 95,40 %
31.01.2016 05:00 4,0 C 4,0 C 2,5 C 88 % 0 lf 1010,5 hPa 0,0 l/m 0,00 h 0,00 h 0 W/m 27,5 km/h (4 Bft) 95,80 %
31.01.2016 06:00 3,9 C 3,9 C 2,6 C 90 % 0 lf 1010,2 hPa 0,0 l/m 0,00 h 0,00 h 0 W/m 23,5 km/h (4 Bft) 96,15 %
31.01.2016 07:00 4,0 C 4,1 C 2,8 C 90 % 0 lf 1010,7 hPa 0,0 l/m 0,00 h 0,00 h 0 W/m 21,8 km/h (4 Bft) 97,44 %
31.01.2016 08:00 4,2 C 4,4 C 3,1 C 90 % 0 lf 1011,0 hPa 0,0 l/m 0,00 h 0,00 h 10 W/m 19,2 km/h (3 Bft) 94,52 %
31.01.2016 09:00 4,5 C 4,8 C 3,5 C 90 % 0 lf 1011,0 hPa 0,0 l/m 0,00 h 0,00 h 32 W/m 16,5 km/h (3 Bft) 95,51 %
31.01.2016 10:00 5,0 C 5,8 C 4,2 C 91 % 0 lf 1011,1 hPa 0,0 l/m 0,00 h 0,00 h 57 W/m 18,0 km/h (3 Bft) 96,87 %
31.01.2016 11:00 5,8 C 7,0 C 5,3 C 90 % 0 lf 1010,7 hPa 0,0 l/m 0,20 h 0,13 h 131 W/m 24,3 km/h (4 Bft) 95,16 %
31.01.2016 12:00 6,2 C 6,5 C 4,9 C 88 % 10 lf 1010,4 hPa 0,2 l/m 0,17 h 0,97 h 127 W/m 25,2 km/h (4 Bft) 97,88 %
31.01.2016 13:00 6,2 C 6,1 C 4,7 C 91 % 15 lf 1009,2 hPa 0,2 l/m 0,00 h 1,00 h 110 W/m 16,4 km/h (3 Bft) 94,73 %
31.01.2016 14:00 6,2 C 5,9 C 4,7 C 92 % 14 lf 1008,6 hPa 0,2 l/m 0,00 h 1,00 h 63 W/m 14,6 km/h (3 Bft) 96,58 %
31.01.2016 15:00 6,4 C 6,1 C 5,0 C 94 % 7 lf 1007,8 hPa 0,0 l/m 0,00 h 0,87 h 37 W/m 12,4 km/h (3 Bft) 97,86 %
31.01.2016 16:00 6,7 C 6,6 C 5,0 C 94 % 1 lf 1007,2 hPa 0,0 l/m 0,00 h 0,03 h 14 W/m 15,5 km/h (3 Bft) 96,30 %
31.01.2016 17:00 6,8 C 6,7 C 5,1 C 95 % 13 lf 1006,7 hPa 0,4 l/m 0,00 h 0,83 h 0 W/m 13,1 km/h (3 Bft) 93,53 %
31.01.2016 18:00 7,1 C 7,0 C 5,8 C 96 % 15 lf 1006,3 hPa 0,2 l/m 0,00 h 0,03 h 0 W/m 17,9 km/h (3 Bft) 98,08 %
31.01.2016 19:00 8,1 C 8,2 C 6,8 C 97 % 15 lf 1006,3 hPa 0,0 l/m 0,00 h 0,13 h 0 W/m 28,6 km/h (4 Bft) 94,72 %
31.01.2016 20:00 9,2 C 9,2 C 7,7 C 98 % 15 lf 1006,6 hPa 0,2 l/m 0,00 h 0,30 h 0 W/m 29,3 km/h (5 Bft) 97,37 %
31.01.2016 21:00 9,9 C 9,8 C 8,3 C 98 % 15 lf 1007,1 hPa 0,6 l/m 0,00 h 0,90 h 0 W/m 24,6 km/h (4 Bft) 95,94 %
31.01.2016 22:00 10,5 C 10,4 C 9,0 C 99 % 15 lf 1007,7 hPa 0,0 l/m 0,00 h 0,83 h 0 W/m 29,4 km/h (5 Bft) 94,73 %
31.01.2016 23:00 11,1 C 11,1 C 9,4 C 99 % 15 lf 1008,6 hPa 0,2 l/m 0,00 h 0,80 h 0 W/m 28,0 km/h (4 Bft) 97,71 %
Min-Datum _ 30.01.16 30.01.16 28.01.16 28.01.16 25.01.16 30.01.16 - - - - 25.01.16 27.01.16
_ Min-Zeit 22:16 21:50 20:42 14:22 03:38 13:18 - - - - 03:56 00:02
Minimum _ 2,7 C 2,2 C 1,1 C 68 % 0 lf 1005,4 hPa - - - - 2,1 km/h (1 Bft) 10,00 %
Max-Datum _ 25.01.16 25.01.16 25.01.16 31.01.16 26.01.16 25.01.16 30.01.16 25.01.16 26.01.16 29.01.16 29.01.16 25.01.16
_ Max-Zeit 15:06 11:24 13:46 22:14 21:08 00:00 13:42 08:40 06:58 11:42 13:36 00:52
Maximum _ 14,0 C 20,0 C 12,2 C 99 % 15 lf 1028,0 hPa 3,6 l/m 0,03 h 0,03 h 413 W/m 71,1 km/h
W-SW (8 Bft)
100,00 %
Durchschnitt _ 8,3 C 8,6 C 6,6 C 88 % 4 lf 1017,8 hPa #22,0 l/m #13:07 h #40:36 h 80 W/m 24,8 km/h (4 Bft) 96,10 %
© 2016 W. Hausmann